createdAt,value
2022-10-18T00:00:28.775Z,78.72
2022-10-18T00:03:32.458Z,78.77
2022-10-18T00:06:36.155Z,78.64
2022-10-18T00:09:40.632Z,78.51
2022-10-18T00:12:43.184Z,78.47
2022-10-18T00:16:03.509Z,78.52
2022-10-18T00:19:06.047Z,78.40
2022-10-18T00:22:08.938Z,78.27
2022-10-18T00:25:11.554Z,78.06
2022-10-18T00:28:14.398Z,78.45
2022-10-18T00:31:18.059Z,78.60
2022-10-18T00:34:20.896Z,78.57
2022-10-18T00:37:23.383Z,78.38
2022-10-18T00:40:26.193Z,78.28
2022-10-18T00:43:28.800Z,78.57
2022-10-18T00:46:34.716Z,78.54
2022-10-18T00:49:58.405Z,78.40
2022-10-18T00:53:05.267Z,78.50
2022-10-18T00:56:08.026Z,78.58
2022-10-18T00:59:12.000Z,78.74
2022-10-18T01:02:18.178Z,78.98
2022-10-18T01:05:21.096Z,78.82
2022-10-18T01:08:51.920Z,78.97
2022-10-18T01:12:00.787Z,78.98
2022-10-18T01:15:06.032Z,79.00
2022-10-18T01:18:21.356Z,79.22
2022-10-18T01:21:55.820Z,79.36
2022-10-18T01:25:49.353Z,80.95
2022-10-18T01:29:35.802Z,80.27
2022-10-18T01:32:45.180Z,80.44
2022-10-18T01:35:52.503Z,80.84
2022-10-18T01:38:58.057Z,80.61
2022-10-18T01:42:03.058Z,80.63
2022-10-18T01:45:07.927Z,80.38
2022-10-18T01:48:12.040Z,80.21
2022-10-18T01:51:14.843Z,80.12
2022-10-18T01:54:30.251Z,80.06
2022-10-18T01:57:37.756Z,80.07
2022-10-18T02:00:45.014Z,79.94
2022-10-18T02:03:48.753Z,79.85
2022-10-18T02:06:55.747Z,80.20
2022-10-18T02:10:30.069Z,79.84
2022-10-18T02:13:40.888Z,80.39
2022-10-18T02:16:52.488Z,80.25
2022-10-18T02:19:56.013Z,80.24
2022-10-18T02:22:59.879Z,80.29
2022-10-18T02:26:02.518Z,80.16
2022-10-18T02:29:05.469Z,80.46
2022-10-18T02:32:17.042Z,81.17
2022-10-18T02:35:23.780Z,80.76
2022-10-18T02:38:27.233Z,80.68
2022-10-18T02:41:30.753Z,80.72
2022-10-18T02:44:34.418Z,80.64
2022-10-18T02:47:37.247Z,80.61
2022-10-18T02:50:40.856Z,80.64
2022-10-18T02:53:43.644Z,80.41
2022-10-18T02:56:46.060Z,80.47
2022-10-18T02:59:48.936Z,80.50
2022-10-18T03:02:52.938Z,80.53
2022-10-18T03:05:55.655Z,80.52
2022-10-18T03:08:58.222Z,80.70
2022-10-18T03:12:01.068Z,80.69
2022-10-18T03:15:03.851Z,80.56
2022-10-18T03:18:06.682Z,80.52
2022-10-18T03:21:09.584Z,80.50
2022-10-18T03:24:12.368Z,80.61
2022-10-18T03:27:14.816Z,80.38
2022-10-18T03:30:18.581Z,80.62
2022-10-18T03:33:21.129Z,80.33
2022-10-18T03:36:24.290Z,80.25
2022-10-18T03:39:26.916Z,80.43
2022-10-18T03:42:30.100Z,80.38
2022-10-18T03:45:32.940Z,80.54
2022-10-18T03:48:35.763Z,80.64
2022-10-18T03:51:38.289Z,80.59
2022-10-18T03:54:41.059Z,80.48
2022-10-18T03:57:43.581Z,80.34
2022-10-18T04:00:50.026Z,80.34
2022-10-18T04:03:52.849Z,80.33
2022-10-18T04:06:55.276Z,80.34
2022-10-18T04:09:58.139Z,80.31
2022-10-18T04:13:00.627Z,80.42
2022-10-18T04:16:03.448Z,80.70
2022-10-18T04:19:05.950Z,80.66
2022-10-18T04:22:09.393Z,80.67
2022-10-18T04:25:11.929Z,80.74
2022-10-18T04:28:14.813Z,80.68
2022-10-18T04:31:17.263Z,80.74
2022-10-18T04:34:20.313Z,80.83
2022-10-18T04:37:22.773Z,80.83
2022-10-18T04:40:26.796Z,80.83
2022-10-18T04:43:29.231Z,80.97
2022-10-18T04:46:32.000Z,81.07
2022-10-18T04:49:34.752Z,80.97
2022-10-18T04:52:37.601Z,81.42
2022-10-18T04:55:40.056Z,81.30
2022-10-18T04:58:43.300Z,81.51
2022-10-18T05:01:45.879Z,81.52
2022-10-18T05:04:48.851Z,81.58
2022-10-18T05:07:51.468Z,81.60
2022-10-18T05:10:55.860Z,81.53
2022-10-18T05:13:58.437Z,81.65
2022-10-18T05:17:01.191Z,81.93
2022-10-18T05:20:04.519Z,81.99
2022-10-18T05:23:10.760Z,81.89
2022-10-18T05:26:13.271Z,81.69
2022-10-18T05:29:16.099Z,81.93
2022-10-18T05:32:18.669Z,81.96
2022-10-18T05:35:21.494Z,82.13
2022-10-18T05:38:24.627Z,82.04
2022-10-18T05:41:27.378Z,81.92
2022-10-18T05:44:29.891Z,81.94
2022-10-18T05:47:32.685Z,82.07
2022-10-18T05:50:38.072Z,82.43
2022-10-18T05:53:43.157Z,82.52
2022-10-18T05:56:45.632Z,82.65
2022-10-18T05:59:48.469Z,82.65
2022-10-18T06:02:50.979Z,82.80
2022-10-18T06:05:58.566Z,82.92
2022-10-18T06:09:03.270Z,83.06
2022-10-18T06:12:06.249Z,83.39
2022-10-18T06:15:09.252Z,83.55
2022-10-18T06:18:12.067Z,84.44
2022-10-18T06:21:14.684Z,84.47
2022-10-18T06:24:18.502Z,85.03
2022-10-18T06:27:20.954Z,85.29
2022-10-18T06:30:23.949Z,85.18
2022-10-18T06:33:26.577Z,85.50
2022-10-18T06:36:29.349Z,85.79
2022-10-18T06:39:31.866Z,86.66
2022-10-18T06:42:34.813Z,87.03
2022-10-18T06:45:37.499Z,86.90
2022-10-18T06:48:40.477Z,87.45
2022-10-18T06:51:43.757Z,87.95
2022-10-18T06:54:46.573Z,88.26
2022-10-18T06:57:49.022Z,89.34
2022-10-18T07:00:51.810Z,89.04
2022-10-18T07:03:55.153Z,88.35
2022-10-18T07:06:58.015Z,88.17
2022-10-18T07:10:00.475Z,87.87
2022-10-18T07:13:30.454Z,87.22
2022-10-18T07:16:26.372Z,86.73
2022-10-18T07:19:29.154Z,87.53
2022-10-18T07:22:31.711Z,86.14
2022-10-18T07:25:35.295Z,84.77
2022-10-18T07:28:37.990Z,83.53
2022-10-18T07:31:41.025Z,83.24
2022-10-18T07:34:43.594Z,83.08
2022-10-18T07:37:46.399Z,81.96
2022-10-18T07:40:49.025Z,80.63
2022-10-18T07:43:52.749Z,80.06
2022-10-18T07:46:55.306Z,77.30
2022-10-18T07:50:02.465Z,76.71
2022-10-18T07:53:05.041Z,74.21
2022-10-18T07:56:15.775Z,71.94
2022-10-18T07:59:18.359Z,69.72
2022-10-18T08:02:21.106Z,69.73
2022-10-18T08:05:24.028Z,68.99
2022-10-18T08:08:26.955Z,68.55
2022-10-18T08:11:29.809Z,67.94
2022-10-18T08:14:32.369Z,67.86
2022-10-18T08:17:35.252Z,67.01
2022-10-18T08:20:42.175Z,65.81
2022-10-18T08:23:45.140Z,64.37
2022-10-18T08:26:49.344Z,64.02
2022-10-18T08:29:52.687Z,62.69
2022-10-18T08:32:55.228Z,62.29
2022-10-18T08:35:59.411Z,61.01
2022-10-18T08:39:02.965Z,58.92
2022-10-18T08:42:17.876Z,60.55
2022-10-18T08:45:30.542Z,59.09
2022-10-18T08:48:51.416Z,59.46
2022-10-18T08:51:54.251Z,58.58
2022-10-18T08:55:21.375Z,58.33
2022-10-18T08:58:26.950Z,56.33
2022-10-18T09:01:52.728Z,56.37
2022-10-18T09:05:15.251Z,53.84
2022-10-18T09:08:43.063Z,53.28
2022-10-18T09:11:58.053Z,55.12
2022-10-18T09:15:32.804Z,52.65
2022-10-18T09:18:47.633Z,55.72
2022-10-18T09:21:55.534Z,54.34
2022-10-18T09:25:23.234Z,52.95
2022-10-18T09:29:05.467Z,54.64
2022-10-18T09:32:26.317Z,51.61
2022-10-18T09:35:50.366Z,50.60
2022-10-18T09:38:58.534Z,52.05
2022-10-18T09:42:13.438Z,49.96
2022-10-18T09:45:28.097Z,50.37
2022-10-18T09:48:53.524Z,50.56
2022-10-18T09:51:58.894Z,49.08
2022-10-18T09:55:05.880Z,48.37
2022-10-18T09:58:11.225Z,47.18
2022-10-18T10:01:23.963Z,45.39
2022-10-18T10:04:27.470Z,44.99
2022-10-18T10:07:35.386Z,45.34
2022-10-18T10:10:40.954Z,45.32
2022-10-18T10:13:43.360Z,45.03
2022-10-18T10:16:58.740Z,43.93
2022-10-18T10:20:25.247Z,44.29
2022-10-18T10:23:29.802Z,44.66
2022-10-18T10:26:34.335Z,43.76
2022-10-18T10:29:47.374Z,44.59
2022-10-18T10:32:51.714Z,44.71
2022-10-18T10:36:00.373Z,44.32
2022-10-18T10:39:10.374Z,42.46
2022-10-18T10:42:13.661Z,41.36
2022-10-18T10:45:16.235Z,42.06
2022-10-18T10:48:20.037Z,42.89
2022-10-18T10:51:30.041Z,43.43
2022-10-18T10:54:46.477Z,42.02
2022-10-18T10:57:53.081Z,40.72
2022-10-18T11:00:56.787Z,41.86
2022-10-18T11:04:02.030Z,42.98
2022-10-18T11:07:11.691Z,41.93
2022-10-18T11:10:18.282Z,41.63
2022-10-18T11:13:35.758Z,42.48
2022-10-18T11:16:47.742Z,42.25
2022-10-18T11:20:03.455Z,42.68
2022-10-18T11:23:08.390Z,41.16
2022-10-18T11:26:11.096Z,41.73
2022-10-18T11:29:42.840Z,40.96
2022-10-18T11:33:03.192Z,41.26
2022-10-18T11:39:53.133Z,41.01
2022-10-18T11:43:10.619Z,41.14
2022-10-18T11:46:18.870Z,41.55
2022-10-18T11:49:49.697Z,41.50
2022-10-18T11:53:11.362Z,41.17
2022-10-18T11:56:29.085Z,41.44
2022-10-18T11:59:38.309Z,41.79
2022-10-18T12:02:54.141Z,42.18
2022-10-18T12:05:59.359Z,41.97
2022-10-18T12:09:14.755Z,41.32
2022-10-18T12:12:34.018Z,42.20
2022-10-18T12:15:39.602Z,41.38
2022-10-18T12:18:55.008Z,40.40
2022-10-18T12:22:06.411Z,40.37
2022-10-18T12:25:14.277Z,40.90
2022-10-18T12:28:47.645Z,41.28
2022-10-18T12:31:53.550Z,40.60
2022-10-18T12:35:06.471Z,39.87
2022-10-18T12:38:19.918Z,39.51
2022-10-18T12:41:27.691Z,39.77
2022-10-18T12:44:35.183Z,40.82
2022-10-18T12:47:37.968Z,39.56
2022-10-18T12:50:43.330Z,39.73
2022-10-18T12:53:48.464Z,40.05
2022-10-18T12:56:51.290Z,40.26
2022-10-18T12:59:53.925Z,40.02
2022-10-18T13:03:18.182Z,39.75
2022-10-18T13:06:21.304Z,38.68
2022-10-18T13:09:28.286Z,38.14
2022-10-18T13:12:30.723Z,38.16
2022-10-18T13:15:49.042Z,38.59
2022-10-18T13:18:54.787Z,38.68
2022-10-18T13:21:57.795Z,38.58
2022-10-18T13:25:22.199Z,38.11
2022-10-18T13:28:39.371Z,37.13
2022-10-18T13:31:48.126Z,37.61
2022-10-18T13:34:51.145Z,37.74
2022-10-18T13:38:18.109Z,37.26
2022-10-18T13:41:47.171Z,37.01
2022-10-18T13:44:49.794Z,36.35
2022-10-18T13:47:52.668Z,37.13
2022-10-18T13:51:00.971Z,36.50
2022-10-18T13:54:41.970Z,36.83
2022-10-18T13:58:02.857Z,36.41
2022-10-18T14:01:33.366Z,36.58
2022-10-18T14:05:02.101Z,36.18
2022-10-18T14:08:45.050Z,36.19
2022-10-18T14:11:53.180Z,35.92
2022-10-18T14:15:09.307Z,34.57
2022-10-18T14:18:38.133Z,35.07
2022-10-18T14:21:44.998Z,35.72
2022-10-18T14:24:51.871Z,36.17
2022-10-18T14:28:13.174Z,35.84
2022-10-18T14:31:18.558Z,36.41
2022-10-18T14:34:21.844Z,36.48
2022-10-18T14:37:34.890Z,36.59
2022-10-18T14:40:40.252Z,36.98
2022-10-18T14:43:43.693Z,37.68
2022-10-18T14:46:59.883Z,38.86
2022-10-18T14:50:02.899Z,39.25
2022-10-18T14:53:15.469Z,39.78
2022-10-18T14:56:27.020Z,39.87
2022-10-18T14:59:31.301Z,40.52
2022-10-18T15:02:36.578Z,40.91
2022-10-18T15:05:51.785Z,40.95
2022-10-18T15:08:57.099Z,41.15
2022-10-18T15:12:00.953Z,42.14
2022-10-18T15:15:04.010Z,43.29
2022-10-18T15:18:07.015Z,43.95
2022-10-18T15:21:21.124Z,44.87
2022-10-18T15:24:26.697Z,45.87
2022-10-18T15:27:32.027Z,45.42
2022-10-18T15:30:41.242Z,45.85
2022-10-18T15:33:44.247Z,46.26
2022-10-18T15:36:48.557Z,46.04
2022-10-18T15:40:17.452Z,46.76
2022-10-18T15:43:23.027Z,47.67
2022-10-18T15:46:32.096Z,47.52
2022-10-18T15:49:48.443Z,48.69
2022-10-18T15:52:51.546Z,49.38
2022-10-18T15:56:13.931Z,49.63
2022-10-18T15:59:28.344Z,49.70
2022-10-18T16:02:31.277Z,50.53
2022-10-18T16:05:34.020Z,50.90
2022-10-18T16:08:42.410Z,51.83
2022-10-18T16:11:45.547Z,52.23
2022-10-18T16:14:47.990Z,52.64
2022-10-18T16:17:50.888Z,53.48
2022-10-18T16:20:53.471Z,53.74
2022-10-18T16:23:56.768Z,53.93
2022-10-18T16:26:59.186Z,56.13
2022-10-18T16:30:02.845Z,55.16
2022-10-18T16:33:07.599Z,55.44
2022-10-18T16:36:14.817Z,55.55
2022-10-18T16:39:18.693Z,55.74
2022-10-18T16:42:21.446Z,56.07
2022-10-18T16:45:23.971Z,56.37
2022-10-18T16:48:27.248Z,56.70
2022-10-18T16:51:29.777Z,57.07
2022-10-18T16:54:32.510Z,57.54
2022-10-18T16:57:37.106Z,57.92
2022-10-18T17:00:41.297Z,58.25
2022-10-18T17:03:44.113Z,58.50
2022-10-18T17:06:48.981Z,58.74
2022-10-18T17:09:51.985Z,58.76
2022-10-18T17:12:57.907Z,59.09
2022-10-18T17:16:00.803Z,61.21
2022-10-18T17:19:05.788Z,60.77
2022-10-18T17:22:08.331Z,60.81
2022-10-18T17:25:11.197Z,60.76
2022-10-18T17:28:16.240Z,60.59
2022-10-18T17:31:20.746Z,61.30
2022-10-18T17:34:23.196Z,61.33
2022-10-18T17:37:26.168Z,61.39
2022-10-18T17:40:28.767Z,61.53
2022-10-18T17:43:31.658Z,62.30
2022-10-18T17:46:34.245Z,62.87
2022-10-18T17:49:37.303Z,62.62
2022-10-18T17:52:44.705Z,62.77
2022-10-18T17:55:47.517Z,63.46
2022-10-18T17:58:51.551Z,63.33
2022-10-18T18:01:54.614Z,63.41
2022-10-18T18:04:57.424Z,63.84
2022-10-18T18:08:03.758Z,64.10
2022-10-18T18:11:07.385Z,64.73
2022-10-18T18:14:10.958Z,64.76
2022-10-18T18:17:14.147Z,65.28
2022-10-18T18:20:16.766Z,65.61
2022-10-18T18:23:19.609Z,65.90
2022-10-18T18:26:22.530Z,65.92
2022-10-18T18:29:26.754Z,66.32
2022-10-18T18:32:29.940Z,65.98
2022-10-18T18:35:32.965Z,66.65
2022-10-18T18:38:36.923Z,66.98
2022-10-18T18:41:39.765Z,66.99
2022-10-18T18:44:45.912Z,67.21
2022-10-18T18:47:48.715Z,67.06
2022-10-18T18:50:52.325Z,67.60
2022-10-18T18:53:55.238Z,67.86
2022-10-18T18:56:58.460Z,68.09
2022-10-18T19:00:01.568Z,68.03
2022-10-18T19:03:04.172Z,68.73
2022-10-18T19:06:10.068Z,68.25
2022-10-18T19:09:26.383Z,68.54
2022-10-18T19:12:31.497Z,68.81
2022-10-18T19:15:34.025Z,68.72
2022-10-18T19:18:36.877Z,69.14
2022-10-18T19:21:51.330Z,69.46
2022-10-18T19:24:54.199Z,69.50
2022-10-18T19:27:56.676Z,69.52
2022-10-18T19:30:59.731Z,69.68
2022-10-18T19:34:05.711Z,69.65
2022-10-18T19:37:10.232Z,70.02
2022-10-18T19:40:13.218Z,69.77
2022-10-18T19:43:15.991Z,70.40
2022-10-18T19:46:18.636Z,70.61
2022-10-18T19:49:21.696Z,70.53
2022-10-18T19:52:24.181Z,70.64
2022-10-18T19:55:27.225Z,70.92
2022-10-18T19:58:29.882Z,71.34
2022-10-18T20:01:32.896Z,71.24
2022-10-18T20:04:38.228Z,71.48
2022-10-18T20:07:42.535Z,71.32
2022-10-18T20:10:46.997Z,71.61
2022-10-18T20:13:50.186Z,71.42
2022-10-18T20:16:52.970Z,71.59
2022-10-18T20:19:55.456Z,71.59
2022-10-18T20:22:58.241Z,71.60
2022-10-18T20:26:10.178Z,71.76
2022-10-18T20:29:13.033Z,71.73
2022-10-18T20:32:15.891Z,72.00
2022-10-18T20:35:19.718Z,72.11
2022-10-18T20:38:22.326Z,72.34
2022-10-18T20:41:30.345Z,72.66
2022-10-18T20:44:33.980Z,72.53
2022-10-18T20:47:36.838Z,72.97
2022-10-18T20:50:42.080Z,72.70
2022-10-18T20:53:45.092Z,73.10
2022-10-18T20:56:47.518Z,73.21
2022-10-18T20:59:50.323Z,73.08
2022-10-18T21:02:52.860Z,73.23
2022-10-18T21:05:55.736Z,73.42
2022-10-18T21:09:01.184Z,73.57
2022-10-18T21:12:04.248Z,73.51
2022-10-18T21:15:07.442Z,73.54
2022-10-18T21:18:10.265Z,73.69
2022-10-18T21:21:22.973Z,73.80
2022-10-18T21:24:26.484Z,74.02
2022-10-18T21:27:28.945Z,74.16
2022-10-18T21:30:35.409Z,74.61
2022-10-18T21:33:38.534Z,74.29
2022-10-18T21:36:42.673Z,74.51
2022-10-18T21:39:46.248Z,74.48
2022-10-18T21:42:49.012Z,74.28
2022-10-18T21:45:58.430Z,74.41
2022-10-18T21:49:01.414Z,74.53
2022-10-18T21:52:05.367Z,74.60
2022-10-18T21:55:08.425Z,74.91
2022-10-18T21:58:11.273Z,75.03
2022-10-18T22:01:28.517Z,75.14
2022-10-18T22:04:35.704Z,75.38
2022-10-18T22:07:38.319Z,75.43
2022-10-18T22:10:41.479Z,75.71
2022-10-18T22:13:44.419Z,76.11
2022-10-18T22:16:47.246Z,76.38
2022-10-18T22:19:49.730Z,76.74
2022-10-18T22:22:54.036Z,76.44
2022-10-18T22:25:56.468Z,76.56
2022-10-18T22:29:08.010Z,76.58
2022-10-18T22:32:10.510Z,76.75
2022-10-18T22:35:13.307Z,76.69
2022-10-18T22:38:15.847Z,77.01
2022-10-18T22:41:19.218Z,77.25
2022-10-18T22:44:21.757Z,77.46
2022-10-18T22:47:24.803Z,77.46
2022-10-18T22:50:27.719Z,77.90
2022-10-18T22:53:31.872Z,77.56
2022-10-18T22:56:34.421Z,77.61
2022-10-18T22:59:37.265Z,77.67
2022-10-18T23:02:39.820Z,77.76
2022-10-18T23:05:44.097Z,77.56
2022-10-18T23:08:46.665Z,77.63
2022-10-18T23:11:50.940Z,77.73
2022-10-18T23:14:53.391Z,78.17
2022-10-18T23:17:57.827Z,78.27
2022-10-18T23:21:02.154Z,78.20
2022-10-18T23:24:05.070Z,78.66
2022-10-18T23:27:07.647Z,78.50
2022-10-18T23:30:11.707Z,78.69
2022-10-18T23:33:14.192Z,78.61
2022-10-18T23:36:17.427Z,79.07
2022-10-18T23:39:20.018Z,78.59
2022-10-18T23:42:22.871Z,78.52
2022-10-18T23:45:25.365Z,78.59
2022-10-18T23:48:28.559Z,78.33
2022-10-18T23:51:31.029Z,78.28
2022-10-18T23:54:34.146Z,78.17
2022-10-18T23:57:36.701Z,78.19
